Time;durP1;ratioP1;P1;durP2;ratioP2;P2;SDS_P1;SDS_P2;PMS_P1;PMS_P2;Temp;Humidity;BMP_temperature;BMP_pressure;BME280_temperature;BME280_humidity;BME280_pressure;Samples;Min_cycle;Max_cycle;Signal;HPM_P1;HPM_P2
2023/08/14 00:00:50;;;;;;;;;;;;;;;;;;5019615;28;20704;-75
2023/08/14 00:03:16;;;;;;;;;;;;;;;;;;5004743;28;21461;-74
2023/08/14 00:05:41;;;;;;;;;;;;;;;;;;5019433;28;20376;-76
2023/08/14 00:08:06;;;;;;;;;;;;;;;;;;5016620;28;20376;-75
2023/08/14 00:10:31;;;;;;;;;;;;;;;;;;5006216;28;19913;-77
2023/08/14 00:12:57;;;;;;;;;;;;;;;;;;5027289;28;20018;-77
2023/08/14 00:15:22;;;;;;;;;;;;;;;;;;5005145;28;19922;-78
2023/08/14 00:17:47;;;;;;;;;;;;;;;;;;5008438;28;20465;-77
2023/08/14 00:20:12;;;;;;;;;;;;;;;;;;5019630;28;20395;-77
2023/08/14 00:22:38;;;;;;;;;;;;;;;;;;5020003;28;19927;-75
2023/08/14 00:25:03;;;;;;;;;;;;;;;;;;5019908;28;19998;-80
2023/08/14 00:27:29;;;;;;;;;;;;;;;;;;5021130;28;20543;-76
2023/08/14 00:29:54;;;;;;;;;;;;;;;;;;5020460;28;20352;-77
2023/08/14 00:32:19;;;;;;;;;;;;;;;;;;5002222;28;20296;-78
2023/08/14 00:34:45;;;;;;;;;;;;;;;;;;5061388;28;19924;-75
2023/08/14 00:37:10;;;;;;;;;;;;;;;;;;5044571;28;19920;-78
2023/08/14 00:39:35;;;;;;;;;;;;;;;;;;5041622;28;19920;-75
2023/08/14 00:42:00;;;;;;;;;;;;;;;;;;5060091;28;19916;-76
2023/08/14 00:44:27;;;;;;;;;;;;;;;;;;5062627;28;19920;-75
2023/08/14 00:46:53;;;;;;;;;;;;;;;;;;5030583;28;19966;-75
2023/08/14 00:49:18;;;;;;;;;;;;;;;;;;5041885;28;19916;-77
2023/08/14 00:51:43;;;;;;;;;;;;;;;;;;5042173;28;19977;-75
2023/08/14 00:54:08;;;;;;;;;;;;;;;;;;5058924;28;19974;-75
2023/08/14 00:56:34;;;;;;;;;;;;;;;;;;5069202;28;20046;-76
2023/08/14 00:58:59;;;;;;;;;;;;;;;;;;5034289;28;19927;-76
2023/08/14 01:01:24;;;;;;;;;;;;;;;;;;5071246;28;19935;-75
2023/08/14 01:03:50;;;;;;;;;;;;;;;;;;5048134;28;20822;-76
2023/08/14 01:06:15;;;;;;;;;;;;;;;;;;5040565;28;20879;-75
2023/08/14 01:08:40;;;;;;;;;;;;;;;;;;5049725;28;20003;-76
2023/08/14 01:11:07;;;;;;;;;;;;;;;;;;5047730;28;19952;-76
2023/08/14 01:13:32;;;;;;;;;;;;;;;;;;5047320;28;20034;-75
2023/08/14 01:15:57;;;;;;;;;;;;;;;;;;5046141;28;20052;-76
2023/08/14 01:18:23;;;;;;;;;;;;;;;;;;5046951;28;19924;-76
2023/08/14 01:20:48;;;;;;;;;;;;;;;;;;5062068;28;20036;-78
2023/08/14 01:23:13;;;;;;;;;;;;;;;;;;5044897;28;19952;-75
2023/08/14 01:25:39;;;;;;;;;;;;;;;;;;5046598;28;19920;-76
2023/08/14 01:28:04;;;;;;;;;;;;;;;;;;5051097;28;19923;-76
2023/08/14 01:30:29;;;;;;;;;;;;;;;;;;5046871;28;20355;-73
2023/08/14 01:32:55;;;;;;;;;;;;;;;;;;5049308;28;19928;-74
2023/08/14 01:35:20;;;;;;;;;;;;;;;;;;5067448;28;20315;-76
2023/08/14 01:37:45;;;;;;;;;;;;;;;;;;5066087;28;20636;-75
2023/08/14 01:40:10;;;;;;;;;;;;;;;;;;5051201;28;19952;-76
2023/08/14 01:42:36;;;;;;;;;;;;;;;;;;5037927;28;19916;-75
2023/08/14 01:45:01;;;;;;;;;;;;;;;;;;5052614;28;19920;-75
2023/08/14 01:47:26;;;;;;;;;;;;;;;;;;5039694;28;20284;-78
2023/08/14 01:49:51;;;;;;;;;;;;;;;;;;5037939;28;19920;-76
2023/08/14 01:52:17;;;;;;;;;;;;;;;;;;5035759;28;19989;-75
2023/08/14 01:54:42;;;;;;;;;;;;;;;;;;5039774;28;20276;-77
2023/08/14 01:57:08;;;;;;;;;;;;;;;;;;5052396;28;20417;-74
2023/08/14 01:59:33;;;;;;;;;;;;;;;;;;5043810;28;19912;-76
2023/08/14 02:01:58;;;;;;;;;;;;;;;;;;5061170;28;20860;-75
2023/08/14 02:04:24;;;;;;;;;;;;;;;;;;5078700;28;21280;-74
2023/08/14 02:06:49;;;;;;;;;;;;;;;;;;5044164;28;19951;-75
2023/08/14 02:09:14;;;;;;;;;;;;;;;;;;5065025;28;20394;-76
2023/08/14 02:11:40;;;;;;;;;;;;;;;;;;5048133;28;19916;-76
2023/08/14 02:14:05;;;;;;;;;;;;;;;;;;5079948;28;20288;-76
2023/08/14 02:16:30;;;;;;;;;;;;;;;;;;5077331;28;19995;-77
2023/08/14 02:18:55;;;;;;;;;;;;;;;;;;5042233;28;20077;-77
2023/08/14 02:21:21;;;;;;;;;;;;;;;;;;5053838;28;21146;-76
2023/08/14 02:23:47;;;;;;;;;;;;;;;;;;5052301;28;19928;-76
2023/08/14 02:26:12;;;;;;;;;;;;;;;;;;5045491;28;19973;-75
2023/08/14 02:28:37;;;;;;;;;;;;;;;;;;5040207;28;20030;-75
2023/08/14 02:31:04;;;;;;;;;;;;;;;;;;5043977;28;19920;-76
2023/08/14 02:33:31;;;;;;;;;;;;;;;;;;5039160;28;19916;-75
2023/08/14 02:35:57;;;;;;;;;;;;;;;;;;5072568;28;19927;-76
2023/08/14 02:38:22;;;;;;;;;;;;;;;;;;5048814;28;20317;-74
2023/08/14 02:40:47;;;;;;;;;;;;;;;;;;5051753;28;19927;-75
2023/08/14 02:43:12;;;;;;;;;;;;;;;;;;5064187;28;19928;-75
2023/08/14 02:45:40;;;;;;;;;;;;;;;;;;5040145;28;20025;-75
2023/08/14 02:48:05;;;;;;;;;;;;;;;;;;5027864;28;19920;-74
2023/08/14 02:50:30;;;;;;;;;;;;;;;;;;5044061;28;20348;-74
2023/08/14 02:52:56;;;;;;;;;;;;;;;;;;5037440;28;19928;-75
2023/08/14 02:55:21;;;;;;;;;;;;;;;;;;5047935;28;19916;-74
2023/08/14 02:57:46;;;;;;;;;;;;;;;;;;5046629;28;19946;-74
2023/08/14 03:00:12;;;;;;;;;;;;;;;;;;5063868;28;20202;-74
2023/08/14 03:02:37;;;;;;;;;;;;;;;;;;5065088;28;20261;-74
2023/08/14 03:05:02;;;;;;;;;;;;;;;;;;5063269;28;20481;-74
2023/08/14 03:07:28;;;;;;;;;;;;;;;;;;5031815;28;19921;-75
2023/08/14 03:09:53;;;;;;;;;;;;;;;;;;5032234;28;19923;-74
2023/08/14 03:12:18;;;;;;;;;;;;;;;;;;5041256;28;19931;-75
2023/08/14 03:14:44;;;;;;;;;;;;;;;;;;5051380;28;20293;-75
2023/08/14 03:17:09;;;;;;;;;;;;;;;;;;5041951;28;19924;-74
2023/08/14 03:19:34;;;;;;;;;;;;;;;;;;5049421;28;20883;-75
2023/08/14 03:22:00;;;;;;;;;;;;;;;;;;5029033;28;19976;-72
2023/08/14 03:24:25;;;;;;;;;;;;;;;;;;5026460;28;20295;-73
2023/08/14 03:26:50;;;;;;;;;;;;;;;;;;5049871;28;19963;-74
2023/08/14 03:29:16;;;;;;;;;;;;;;;;;;5046108;28;19922;-75
2023/08/14 03:31:41;;;;;;;;;;;;;;;;;;5044847;28;19924;-76
2023/08/14 03:34:06;;;;;;;;;;;;;;;;;;5029100;28;19956;-75
2023/08/14 03:36:34;;;;;;;;;;;;;;;;;;5047338;28;19963;-75
2023/08/14 03:38:59;;;;;;;;;;;;;;;;;;5045149;28;21423;-74
2023/08/14 03:41:24;;;;;;;;;;;;;;;;;;5029463;28;19920;-75
2023/08/14 03:43:50;;;;;;;;;;;;;;;;;;5025352;28;19974;-75
2023/08/14 03:46:15;;;;;;;;;;;;;;;;;;5040799;28;19920;-75
2023/08/14 03:48:40;;;;;;;;;;;;;;;;;;5060689;28;19931;-75
2023/08/14 03:51:05;;;;;;;;;;;;;;;;;;5042539;28;20160;-74
2023/08/14 03:53:31;;;;;;;;;;;;;;;;;;5026705;28;19927;-75
2023/08/14 03:55:57;;;;;;;;;;;;;;;;;;5059721;28;19920;-72
2023/08/14 03:58:22;;;;;;;;;;;;;;;;;;5038644;28;20445;-74
2023/08/14 04:00:47;;;;;;;;;;;;;;;;;;5057588;28;19978;-74
2023/08/14 04:03:15;;;;;;;;;;;;;;;;;;5026132;28;19920;-73
2023/08/14 04:05:43;;;;;;;;;;;;;;;;;;5022527;28;19927;-74
2023/08/14 04:08:09;;;;;;;;;;;;;;;;;;5044866;28;19921;-75
2023/08/14 04:10:34;;;;;;;;;;;;;;;;;;5057748;28;19920;-73
2023/08/14 04:12:59;;;;;;;;;;;;;;;;;;5055205;28;20445;-74
2023/08/14 04:15:25;;;;;;;;;;;;;;;;;;5028817;28;20001;-74
2023/08/14 04:17:53;;;;;;;;;;;;;;;;;;5028626;28;20435;-75
2023/08/14 04:20:18;;;;;;;;;;;;;;;;;;5026428;28;19920;-75
2023/08/14 04:22:43;;;;;;;;;;;;;;;;;;5039506;28;20015;-73
2023/08/14 04:25:09;;;;;;;;;;;;;;;;;;5036036;28;20522;-74
2023/08/14 04:27:34;;;;;;;;;;;;;;;;;;5037190;28;19920;-74
2023/08/14 04:30:00;;;;;;;;;;;;;;;;;;5026164;28;19916;-73
2023/08/14 04:32:25;;;;;;;;;;;;;;;;;;5040177;28;20496;-72
2023/08/14 04:34:50;;;;;;;;;;;;;;;;;;5030536;28;19973;-74
2023/08/14 04:37:19;;;;;;;;;;;;;;;;;;5057905;28;19917;-73
2023/08/14 04:39:44;;;;;;;;;;;;;;;;;;5030030;28;19920;-71
2023/08/14 04:42:09;;;;;;;;;;;;;;;;;;5060832;28;19920;-73
2023/08/14 04:44:34;;;;;;;;;;;;;;;;;;5029106;28;19928;-72
2023/08/14 04:47:00;;;;;;;;;;;;;;;;;;5027174;28;19923;-71
2023/08/14 04:49:25;;;;;;;;;;;;;;;;;;5039513;28;20053;-75
2023/08/14 04:51:50;;;;;;;;;;;;;;;;;;5031230;28;19924;-72
2023/08/14 04:54:16;;;;;;;;;;;;;;;;;;5039614;28;19920;-75
2023/08/14 04:56:41;;;;;;;;;;;;;;;;;;5058951;28;20394;-73
2023/08/14 04:59:06;;;;;;;;;;;;;;;;;;5023992;28;20299;-72
2023/08/14 05:01:32;;;;;;;;;;;;;;;;;;5053620;28;20017;-73
2023/08/14 05:03:57;;;;;;;;;;;;;;;;;;5046659;28;20007;-72
2023/08/14 05:06:22;;;;;;;;;;;;;;;;;;5025165;28;20383;-74
2023/08/14 05:08:48;;;;;;;;;;;;;;;;;;5026261;28;20088;-74
2023/08/14 05:11:16;;;;;;;;;;;;;;;;;;5027778;28;19948;-75
2023/08/14 05:13:44;;;;;;;;;;;;;;;;;;5042893;28;19916;-75
2023/08/14 05:16:09;;;;;;;;;;;;;;;;;;5042775;28;19942;-75
2023/08/14 05:18:34;;;;;;;;;;;;;;;;;;5059655;28;20364;-76
2023/08/14 05:21:00;;;;;;;;;;;;;;;;;;5036909;28;20430;-73
2023/08/14 05:23:25;;;;;;;;;;;;;;;;;;5058811;28;19961;-72
2023/08/14 05:25:50;;;;;;;;;;;;;;;;;;5030509;28;20677;-74
2023/08/14 05:28:16;;;;;;;;;;;;;;;;;;5041141;28;20932;-74
2023/08/14 05:30:41;;;;;;;;;;;;;;;;;;5027713;28;19920;-75
2023/08/14 05:33:06;;;;;;;;;;;;;;;;;;5028468;28;19925;-74
2023/08/14 05:35:32;;;;;;;;;;;;;;;;;;5043074;28;20509;-73
2023/08/14 05:37:57;;;;;;;;;;;;;;;;;;5023875;28;19920;-73
2023/08/14 05:40:22;;;;;;;;;;;;;;;;;;5040660;28;20015;-75
2023/08/14 05:42:48;;;;;;;;;;;;;;;;;;5060187;28;19916;-74
2023/08/14 05:45:13;;;;;;;;;;;;;;;;;;5031947;28;20317;-72
2023/08/14 05:47:38;;;;;;;;;;;;;;;;;;5027694;28;19916;-74
2023/08/14 05:50:04;;;;;;;;;;;;;;;;;;5023594;28;20023;-74
2023/08/14 05:52:29;;;;;;;;;;;;;;;;;;5026869;28;21040;-74
2023/08/14 05:54:54;;;;;;;;;;;;;;;;;;5041187;28;20899;-76
2023/08/14 05:57:20;;;;;;;;;;;;;;;;;;5027337;28;19952;-74
2023/08/14 05:59:46;;;;;;;;;;;;;;;;;;5045506;28;19927;-74
2023/08/14 06:02:11;;;;;;;;;;;;;;;;;;5025915;28;19920;-75
2023/08/14 06:04:37;;;;;;;;;;;;;;;;;;5041234;28;19923;-73
2023/08/14 06:07:03;;;;;;;;;;;;;;;;;;5043794;28;19920;-73
2023/08/14 06:09:28;;;;;;;;;;;;;;;;;;5056704;28;19916;-75
2023/08/14 06:11:53;;;;;;;;;;;;;;;;;;5059720;28;20509;-74
2023/08/14 06:14:18;;;;;;;;;;;;;;;;;;5040030;28;20670;-74
2023/08/14 06:16:44;;;;;;;;;;;;;;;;;;5043404;28;21621;-75
2023/08/14 06:19:09;;;;;;;;;;;;;;;;;;5047880;28;19957;-74
2023/08/14 06:21:34;;;;;;;;;;;;;;;;;;5056397;28;19962;-74
2023/08/14 06:24:00;;;;;;;;;;;;;;;;;;5040427;28;19920;-73
2023/08/14 06:26:26;;;;;;;;;;;;;;;;;;5058477;28;19959;-73
2023/08/14 06:28:51;;;;;;;;;;;;;;;;;;5040798;28;21533;-74
2023/08/14 06:31:16;;;;;;;;;;;;;;;;;;5030412;28;19934;-74
2023/08/14 06:33:44;;;;;;;;;;;;;;;;;;5037396;28;20591;-74
2023/08/14 06:36:09;;;;;;;;;;;;;;;;;;5039751;28;19920;-73
2023/08/14 06:38:35;;;;;;;;;;;;;;;;;;5040268;28;20322;-73
2023/08/14 06:41:00;;;;;;;;;;;;;;;;;;5038790;28;20046;-71
2023/08/14 06:43:25;;;;;;;;;;;;;;;;;;5047259;28;19913;-75
2023/08/14 06:45:51;;;;;;;;;;;;;;;;;;5045815;28;19950;-76
2023/08/14 06:48:16;;;;;;;;;;;;;;;;;;5059249;28;20707;-76
2023/08/14 06:50:41;;;;;;;;;;;;;;;;;;5024810;28;20441;-77
2023/08/14 06:53:07;;;;;;;;;;;;;;;;;;5041083;28;19932;-74
2023/08/14 06:55:32;;;;;;;;;;;;;;;;;;5039898;28;19924;-75
2023/08/14 06:57:57;;;;;;;;;;;;;;;;;;5039649;28;20069;-75
2023/08/14 07:00:22;;;;;;;;;;;;;;;;;;5056842;28;20015;-76
2023/08/14 07:02:50;;;;;;;;;;;;;;;;;;5039328;28;19916;-77
2023/08/14 07:05:15;;;;;;;;;;;;;;;;;;5039808;28;20431;-76
2023/08/14 07:07:41;;;;;;;;;;;;;;;;;;5027226;28;19917;-77
2023/08/14 07:10:06;;;;;;;;;;;;;;;;;;5039030;28;19923;-77
2023/08/14 07:12:31;;;;;;;;;;;;;;;;;;5023969;28;19928;-77
2023/08/14 07:14:57;;;;;;;;;;;;;;;;;;5059546;28;19920;-78
2023/08/14 07:17:22;;;;;;;;;;;;;;;;;;5045065;28;20399;-76
2023/08/14 07:19:47;;;;;;;;;;;;;;;;;;5027901;28;19920;-79
2023/08/14 07:22:13;;;;;;;;;;;;;;;;;;5037839;28;19920;-78
2023/08/14 07:24:38;;;;;;;;;;;;;;;;;;5055438;28;20424;-77
2023/08/14 07:27:03;;;;;;;;;;;;;;;;;;5022512;28;19916;-78
2023/08/14 07:29:29;;;;;;;;;;;;;;;;;;5027619;28;19928;-79
2023/08/14 07:31:54;;;;;;;;;;;;;;;;;;5038948;28;20376;-76
2023/08/14 07:34:19;;;;;;;;;;;;;;;;;;5027012;28;20303;-76
2023/08/14 07:36:45;;;;;;;;;;;;;;;;;;5039198;28;19920;-77
2023/08/14 07:39:10;;;;;;;;;;;;;;;;;;5039140;28;20542;-75
2023/08/14 07:41:38;;;;;;;;;;;;;;;;;;5028565;28;19919;-79
2023/08/14 07:44:03;;;;;;;;;;;;;;;;;;5039084;28;19920;-78
2023/08/14 07:46:28;;;;;;;;;;;;;;;;;;5057881;28;20332;-77
2023/08/14 07:48:53;;;;;;;;;;;;;;;;;;5059331;28;19920;-78
2023/08/14 07:51:19;;;;;;;;;;;;;;;;;;5057369;28;20498;-77
2023/08/14 07:53:44;;;;;;;;;;;;;;;;;;5057880;28;19967;-76
2023/08/14 07:56:10;;;;;;;;;;;;;;;;;;5040561;28;19916;-76
2023/08/14 07:58:35;;;;;;;;;;;;;;;;;;5040087;28;19920;-78
2023/08/14 08:01:01;;;;;;;;;;;;;;;;;;5026469;28;20371;-78
2023/08/14 08:03:26;;;;;;;;;;;;;;;;;;5039842;28;20437;-76
2023/08/14 08:05:51;;;;;;;;;;;;;;;;;;5049845;28;20507;-77
2023/08/14 08:08:16;;;;;;;;;;;;;;;;;;5061945;28;19916;-78
2023/08/14 08:10:42;;;;;;;;;;;;;;;;;;5044718;28;20078;-79
2023/08/14 08:13:08;;;;;;;;;;;;;;;;;;5039710;28;19924;-77
2023/08/14 08:15:33;;;;;;;;;;;;;;;;;;5047022;28;19916;-78
2023/08/14 08:17:58;;;;;;;;;;;;;;;;;;5044627;28;19938;-78
2023/08/14 08:20:24;;;;;;;;;;;;;;;;;;5059531;28;20371;-79
2023/08/14 08:22:49;;;;;;;;;;;;;;;;;;5041363;28;19924;-78
2023/08/14 08:25:14;;;;;;;;;;;;;;;;;;5044825;28;19928;-80
2023/08/14 08:27:40;;;;;;;;;;;;;;;;;;5062326;28;21562;-79
2023/08/14 08:30:05;;;;;;;;;;;;;;;;;;5044109;28;20081;-79
2023/08/14 08:32:30;;;;;;;;;;;;;;;;;;5029639;28;19920;-78
2023/08/14 08:34:55;;;;;;;;;;;;;;;;;;5062597;28;19928;-78
2023/08/14 08:37:21;;;;;;;;;;;;;;;;;;5059458;28;20030;-73
2023/08/14 08:39:46;;;;;;;;;;;;;;;;;;5043209;28;20016;-78
2023/08/14 08:42:14;;;;;;;;;;;;;;;;;;5042066;28;19916;-78
2023/08/14 08:44:39;;;;;;;;;;;;;;;;;;5060435;28;19927;-80
2023/08/14 08:47:04;;;;;;;;;;;;;;;;;;5042552;28;20192;-79
2023/08/14 08:49:30;;;;;;;;;;;;;;;;;;5043080;28;20325;-80
2023/08/14 08:51:55;;;;;;;;;;;;;;;;;;5030694;28;20063;-81
2023/08/14 08:54:20;;;;;;;;;;;;;;;;;;5059912;28;19927;-79
2023/08/14 08:56:45;;;;;;;;;;;;;;;;;;5045044;28;20364;-80
2023/08/14 08:59:14;;;;;;;;;;;;;;;;;;5046120;28;20448;-80
2023/08/14 09:01:39;;;;;;;;;;;;;;;;;;5042842;28;20124;-79
2023/08/14 09:04:04;;;;;;;;;;;;;;;;;;5043412;28;19924;-78
2023/08/14 09:06:29;;;;;;;;;;;;;;;;;;5041685;28;20470;-80
2023/08/14 09:08:55;;;;;;;;;;;;;;;;;;5060760;28;20002;-76
2023/08/14 09:11:20;;;;;;;;;;;;;;;;;;5046065;28;19931;-77
2023/08/14 09:13:45;;;;;;;;;;;;;;;;;;5042687;28;19920;-80
2023/08/14 09:16:11;;;;;;;;;;;;;;;;;;5041774;28;20431;-73
2023/08/14 09:18:36;;;;;;;;;;;;;;;;;;5045517;28;20394;-78
2023/08/14 09:21:01;;;;;;;;;;;;;;;;;;5042470;28;19995;-78
2023/08/14 09:23:26;;;;;;;;;;;;;;;;;;5041200;28;20059;-78
2023/08/14 09:25:52;;;;;;;;;;;;;;;;;;5061303;28;20283;-77
2023/08/14 09:28:20;;;;;;;;;;;;;;;;;;5040114;28;19920;-78
2023/08/14 09:30:48;;;;;;;;;;;;;;;;;;5046193;28;19916;-76
2023/08/14 09:33:13;;;;;;;;;;;;;;;;;;5042338;28;20052;-80
2023/08/14 09:35:38;;;;;;;;;;;;;;;;;;5042179;28;19925;-75
2023/08/14 09:38:03;;;;;;;;;;;;;;;;;;5058919;28;21818;-80
2023/08/14 09:40:34;;;;;;;;;;;;;;;;;;5045788;28;19956;-76
2023/08/14 09:43:00;;;;;;;;;;;;;;;;;;5040373;28;20313;-78
2023/08/14 09:45:27;;;;;;;;;;;;;;;;;;5058798;28;19932;-78
2023/08/14 09:47:52;;;;;;;;;;;;;;;;;;5060748;28;19973;-78
2023/08/14 09:50:20;;;;;;;;;;;;;;;;;;5041749;28;19924;-77
2023/08/14 09:52:45;;;;;;;;;;;;;;;;;;5040475;28;19924;-78
2023/08/14 09:55:11;;;;;;;;;;;;;;;;;;5029751;28;19921;-79
2023/08/14 09:57:36;;;;;;;;;;;;;;;;;;5040690;28;20363;-80
2023/08/14 10:00:01;;;;;;;;;;;;;;;;;;5045741;28;19994;-76
2023/08/14 10:02:27;;;;;;;;;;;;;;;;;;5041691;28;20490;-74
2023/08/14 10:04:55;;;;;;;;;;;;;;;;;;5040720;28;19920;-75
2023/08/14 10:07:20;;;;;;;;;;;;;;;;;;5041784;28;19920;-76
2023/08/14 10:09:48;;;;;;;;;;;;;;;;;;5060146;28;19927;-76
2023/08/14 10:12:13;;;;;;;;;;;;;;;;;;5057695;28;19920;-74
2023/08/14 10:14:39;;;;;;;;;;;;;;;;;;5039520;28;20430;-76
2023/08/14 10:17:04;;;;;;;;;;;;;;;;;;5041202;28;19956;-79
2023/08/14 10:19:30;;;;;;;;;;;;;;;;;;5025824;28;20374;-72
2023/08/14 10:21:55;;;;;;;;;;;;;;;;;;5040886;28;19966;-76
2023/08/14 10:24:21;;;;;;;;;;;;;;;;;;5055732;28;20038;-73
2023/08/14 10:26:46;;;;;;;;;;;;;;;;;;5058136;28;20394;-73
2023/08/14 10:29:11;;;;;;;;;;;;;;;;;;5058928;28;19920;-76
2023/08/14 10:31:36;;;;;;;;;;;;;;;;;;5024922;28;19939;-76
2023/08/14 10:34:04;;;;;;;;;;;;;;;;;;5024038;28;20175;-77
2023/08/14 10:36:32;;;;;;;;;;;;;;;;;;5043612;28;19920;-76
2023/08/14 10:38:57;;;;;;;;;;;;;;;;;;5057964;28;20011;-76
2023/08/14 10:41:22;;;;;;;;;;;;;;;;;;5040630;28;20475;-74
2023/08/14 10:43:48;;;;;;;;;;;;;;;;;;5028075;28;19965;-74
2023/08/14 10:46:13;;;;;;;;;;;;;;;;;;5057926;28;19920;-75
2023/08/14 10:48:38;;;;;;;;;;;;;;;;;;5022607;28;20253;-77
2023/08/14 10:51:04;;;;;;;;;;;;;;;;;;5058613;28;19920;-76
2023/08/14 10:53:29;;;;;;;;;;;;;;;;;;5039461;28;20436;-76
2023/08/14 10:55:54;;;;;;;;;;;;;;;;;;5041291;28;19920;-79
2023/08/14 10:58:20;;;;;;;;;;;;;;;;;;5038984;28;20380;-75
2023/08/14 11:00:45;;;;;;;;;;;;;;;;;;5040369;28;19967;-75
2023/08/14 11:03:11;;;;;;;;;;;;;;;;;;5038766;28;19959;-76
2023/08/14 11:05:37;;;;;;;;;;;;;;;;;;5033216;28;20384;-77
2023/08/14 11:08:02;;;;;;;;;;;;;;;;;;5026904;28;19960;-78
2023/08/14 11:10:27;;;;;;;;;;;;;;;;;;5026778;28;20003;-77
2023/08/14 11:12:55;;;;;;;;;;;;;;;;;;5040744;28;20315;-78
2023/08/14 11:15:21;;;;;;;;;;;;;;;;;;5042901;28;19939;-78
2023/08/14 11:17:46;;;;;;;;;;;;;;;;;;5058187;28;19916;-75
2023/08/14 11:20:11;;;;;;;;;;;;;;;;;;5042304;28;19942;-74
2023/08/14 11:22:37;;;;;;;;;;;;;;;;;;5041486;28;19955;-78
2023/08/14 11:25:02;;;;;;;;;;;;;;;;;;5038753;28;20284;-76
2023/08/14 11:27:27;;;;;;;;;;;;;;;;;;5031321;28;19921;-77
2023/08/14 11:29:53;;;;;;;;;;;;;;;;;;5026087;28;19920;-75
2023/08/14 11:32:18;;;;;;;;;;;;;;;;;;5057276;28;20292;-74
2023/08/14 11:34:46;;;;;;;;;;;;;;;;;;5039056;28;20403;-77
2023/08/14 11:37:11;;;;;;;;;;;;;;;;;;5036791;28;20386;-77
2023/08/14 11:39:37;;;;;;;;;;;;;;;;;;5043313;28;20432;-78
2023/08/14 11:42:03;;;;;;;;;;;;;;;;;;5057572;28;22110;-73
2023/08/14 11:44:28;;;;;;;;;;;;;;;;;;5041032;28;19927;-79
2023/08/14 11:46:54;;;;;;;;;;;;;;;;;;5042895;28;19921;-78
2023/08/14 11:49:19;;;;;;;;;;;;;;;;;;5055978;28;19921;-77
2023/08/14 11:51:44;;;;;;;;;;;;;;;;;;5039309;28;20054;-77
2023/08/14 11:54:10;;;;;;;;;;;;;;;;;;5056812;28;19943;-76
2023/08/14 11:56:35;;;;;;;;;;;;;;;;;;5025829;28;19969;-75
2023/08/14 11:59:00;;;;;;;;;;;;;;;;;;5054871;28;19920;-77
2023/08/14 12:01:26;;;;;;;;;;;;;;;;;;5041084;28;19916;-77
2023/08/14 12:03:53;;;;;;;;;;;;;;;;;;5058289;28;20580;-75
2023/08/14 12:06:20;;;;;;;;;;;;;;;;;;5044792;28;19924;-78
2023/08/14 12:08:45;;;;;;;;;;;;;;;;;;5056043;28;20576;-76
2023/08/14 12:11:10;;;;;;;;;;;;;;;;;;5041219;28;19920;-77
2023/08/14 12:13:36;;;;;;;;;;;;;;;;;;5056976;28;20016;-78
2023/08/14 12:16:01;;;;;;;;;;;;;;;;;;5044715;28;19933;-77
2023/08/14 12:18:26;;;;;;;;;;;;;;;;;;5039653;28;19947;-79
2023/08/14 12:20:51;;;;;;;;;;;;;;;;;;5043313;28;19973;-77
2023/08/14 12:23:19;;;;;;;;;;;;;;;;;;5027284;28;19951;-77
2023/08/14 12:25:44;;;;;;;;;;;;;;;;;;5025310;28;20046;-77
2023/08/14 12:28:10;;;;;;;;;;;;;;;;;;5057735;28;19920;-77
2023/08/14 12:30:35;;;;;;;;;;;;;;;;;;5037284;28;20001;-77
2023/08/14 12:33:00;;;;;;;;;;;;;;;;;;5038308;28;19912;-78
2023/08/14 12:35:26;;;;;;;;;;;;;;;;;;5007425;28;19929;-77
2023/08/14 12:37:54;;;;;;;;;;;;;;;;;;5002753;28;20007;-79
2023/08/14 12:40:22;;;;;;;;;;;;;;;;;;5018395;28;20367;-79
2023/08/14 12:42:50;;;;;;;;;;;;;;;;;;5016011;28;20303;-78
2023/08/14 12:45:17;;;;;;;;;;;;;;;;;;5015572;28;19924;-79
2023/08/14 12:47:43;;;;;;;;;;;;;;;;;;5013665;28;20365;-78
2023/08/14 12:50:08;;;;;;;;;;;;;;;;;;5004998;28;20018;-77
2023/08/14 12:52:33;;;;;;;;;;;;;;;;;;5019378;28;19920;-73
2023/08/14 12:55:01;;;;;;;;;;;;;;;;;;5020203;28;19921;-78
2023/08/14 12:57:26;;;;;;;;;;;;;;;;;;5021308;28;20351;-78
2023/08/14 12:59:51;;;;;;;;;;;;;;;;;;5024168;28;19927;-80
2023/08/14 13:02:17;;;;;;;;;;;;;;;;;;5022325;28;19930;-79
2023/08/14 13:04:42;;;;;;;;;;;;;;;;;;5005425;28;19920;-79
2023/08/14 13:07:07;;;;;;;;;;;;;;;;;;5018450;28;19925;-80
2023/08/14 13:09:33;;;;;;;;;;;;;;;;;;5001559;28;20476;-78
2023/08/14 13:11:58;;;;;;;;;;;;;;;;;;5020473;28;19928;-79
2023/08/14 13:14:23;;;;;;;;;;;;;;;;;;5019656;28;19920;-79
2023/08/14 13:16:48;;;;;;;;;;;;;;;;;;5022510;28;19921;-78
2023/08/14 13:19:14;;;;;;;;;;;;;;;;;;5018324;28;19947;-78
2023/08/14 13:21:41;;;;;;;;;;;;;;;;;;5021605;28;19937;-78
2023/08/14 13:24:06;;;;;;;;;;;;;;;;;;5003976;28;20502;-80
2023/08/14 13:26:32;;;;;;;;;;;;;;;;;;5019542;28;19924;-77
2023/08/14 13:28:57;;;;;;;;;;;;;;;;;;5018989;28;19922;-78
2023/08/14 13:31:22;;;;;;;;;;;;;;;;;;5020095;28;19928;-78
2023/08/14 13:33:51;;;;;;;;;;;;;;;;;;5024050;28;20549;-79
2023/08/14 13:36:16;;;;;;;;;;;;;;;;;;5042843;28;20491;-75
2023/08/14 13:38:41;;;;;;;;;;;;;;;;;;5041738;28;20401;-76
2023/08/14 13:41:07;;;;;;;;;;;;;;;;;;5025555;28;20550;-76
2023/08/14 13:43:33;;;;;;;;;;;;;;;;;;5042031;28;19996;-76
2023/08/14 13:46:01;;;;;;;;;;;;;;;;;;5041562;28;19920;-76
2023/08/14 13:48:26;;;;;;;;;;;;;;;;;;5047334;28;19928;-76
2023/08/14 13:50:51;;;;;;;;;;;;;;;;;;5024371;28;19916;-78
2023/08/14 13:53:17;;;;;;;;;;;;;;;;;;5028378;28;19951;-72
2023/08/14 13:55:44;;;;;;;;;;;;;;;;;;5026095;28;20216;-73
2023/08/14 13:58:12;;;;;;;;;;;;;;;;;;5031899;28;19932;-70
2023/08/14 14:00:37;;;;;;;;;;;;;;;;;;5037040;28;19924;-71
2023/08/14 14:03:05;;;;;;;;;;;;;;;;;;5033983;28;19931;-72
2023/08/14 14:05:30;;;;;;;;;;;;;;;;;;5036746;28;19983;-71
2023/08/14 14:07:56;;;;;;;;;;;;;;;;;;5053499;28;19920;-72
2023/08/14 14:10:24;;;;;;;;;;;;;;;;;;5038180;28;19921;-72
2023/08/14 14:12:49;;;;;;;;;;;;;;;;;;5055233;28;20262;-72
2023/08/14 14:15:14;;;;;;;;;;;;;;;;;;5058497;28;19960;-71
2023/08/14 14:17:39;;;;;;;;;;;;;;;;;;5041833;28;20417;-70
2023/08/14 14:20:09;;;;;;;;;;;;;;;;;;5023502;28;20348;-71
2023/08/14 14:22:34;;;;;;;;;;;;;;;;;;5051128;28;19920;-72
2023/08/14 14:25:00;;;;;;;;;;;;;;;;;;5036517;28;19920;-72
2023/08/14 14:27:25;;;;;;;;;;;;;;;;;;5022730;28;19917;-72
2023/08/14 14:29:50;;;;;;;;;;;;;;;;;;5054840;28;19951;-72
2023/08/14 14:32:18;;;;;;;;;;;;;;;;;;5039533;28;19920;-70
2023/08/14 14:34:43;;;;;;;;;;;;;;;;;;5034331;28;20737;-71
2023/08/14 14:37:09;;;;;;;;;;;;;;;;;;5036167;28;19920;-71
2023/08/14 14:39:36;;;;;;;;;;;;;;;;;;5041617;28;19947;-72
2023/08/14 14:42:02;;;;;;;;;;;;;;;;;;5039416;28;20312;-72
2023/08/14 14:44:27;;;;;;;;;;;;;;;;;;5024524;28;19920;-72
2023/08/14 14:46:53;;;;;;;;;;;;;;;;;;5032246;28;19926;-72
2023/08/14 14:49:20;;;;;;;;;;;;;;;;;;5055567;28;20284;-72
2023/08/14 14:51:46;;;;;;;;;;;;;;;;;;5054946;28;20019;-72
2023/08/14 14:54:11;;;;;;;;;;;;;;;;;;5051564;28;19926;-73
2023/08/14 14:56:39;;;;;;;;;;;;;;;;;;5036144;28;19920;-73
2023/08/14 14:59:04;;;;;;;;;;;;;;;;;;5052520;28;20493;-72
2023/08/14 15:01:29;;;;;;;;;;;;;;;;;;5042552;28;20064;-73
2023/08/14 15:03:54;;;;;;;;;;;;;;;;;;5036654;28;20028;-72
2023/08/14 15:06:20;;;;;;;;;;;;;;;;;;5039028;28;20400;-71
2023/08/14 15:08:45;;;;;;;;;;;;;;;;;;5036589;28;20573;-73
2023/08/14 15:11:10;;;;;;;;;;;;;;;;;;5037402;28;19920;-72
2023/08/14 15:13:35;;;;;;;;;;;;;;;;;;5053733;28;20485;-72
2023/08/14 15:16:01;;;;;;;;;;;;;;;;;;5026735;28;19954;-72
2023/08/14 15:18:26;;;;;;;;;;;;;;;;;;5038657;28;19920;-72
2023/08/14 15:20:52;;;;;;;;;;;;;;;;;;5039509;28;20023;-72
2023/08/14 15:23:17;;;;;;;;;;;;;;;;;;5028169;28;19952;-72
2023/08/14 15:25:45;;;;;;;;;;;;;;;;;;5056896;28;20005;-74
2023/08/14 15:28:13;;;;;;;;;;;;;;;;;;5020286;28;20300;-73
2023/08/14 15:30:40;;;;;;;;;;;;;;;;;;5026124;28;19920;-73
2023/08/14 15:33:06;;;;;;;;;;;;;;;;;;5035938;28;19966;-69
2023/08/14 15:35:33;;;;;;;;;;;;;;;;;;5018947;28;21386;-73
2023/08/14 15:37:58;;;;;;;;;;;;;;;;;;5017749;28;19921;-73
2023/08/14 15:40:24;;;;;;;;;;;;;;;;;;5012585;28;20512;-72
2023/08/14 15:42:52;;;;;;;;;;;;;;;;;;4993495;28;20809;-73
2023/08/14 15:45:18;;;;;;;;;;;;;;;;;;5016393;28;19968;-73
2023/08/14 15:47:43;;;;;;;;;;;;;;;;;;5010604;28;20336;-74
2023/08/14 15:50:08;;;;;;;;;;;;;;;;;;5016423;28;20319;-73
2023/08/14 15:52:33;;;;;;;;;;;;;;;;;;5012354;28;20402;-73
2023/08/14 15:54:59;;;;;;;;;;;;;;;;;;5018653;28;19956;-73
2023/08/14 15:57:24;;;;;;;;;;;;;;;;;;5014517;28;19921;-73
2023/08/14 15:59:52;;;;;;;;;;;;;;;;;;5016575;28;20395;-71
2023/08/14 16:02:18;;;;;;;;;;;;;;;;;;5016477;28;19972;-72
2023/08/14 16:04:46;;;;;;;;;;;;;;;;;;5014413;28;20383;-73
2023/08/14 16:07:11;;;;;;;;;;;;;;;;;;5024805;28;19921;-72
2023/08/14 16:09:36;;;;;;;;;;;;;;;;;;5014992;28;19921;-72
2023/08/14 16:12:02;;;;;;;;;;;;;;;;;;5014985;28;19917;-74
2023/08/14 16:14:27;;;;;;;;;;;;;;;;;;5019845;28;19983;-72
2023/08/14 16:16:52;;;;;;;;;;;;;;;;;;5015092;28;19925;-72
2023/08/14 16:19:17;;;;;;;;;;;;;;;;;;4998412;28;20349;-72
2023/08/14 16:21:43;;;;;;;;;;;;;;;;;;5015261;28;19951;-72
2023/08/14 16:24:10;;;;;;;;;;;;;;;;;;4997916;28;19999;-69
2023/08/14 16:26:36;;;;;;;;;;;;;;;;;;5002591;28;19921;-72
2023/08/14 16:29:01;;;;;;;;;;;;;;;;;;5019750;28;19921;-72
2023/08/14 16:31:26;;;;;;;;;;;;;;;;;;5016954;28;19917;-73
2023/08/14 16:33:52;;;;;;;;;;;;;;;;;;5005752;28;21650;-72